Time;durP1;ratioP1;P1;durP2;ratioP2;P2;SDS_P1;SDS_P2;PMS_P1;PMS_P2;Temp;Humidity;BMP_temperature;BMP_pressure;BME280_temperature;BME280_humidity;BME280_pressure;Samples;Min_cycle;Max_cycle;Signal;HPM_P1;HPM_P2
2022/03/20 00:01:10;;;;;;;0.20;0.20;;;;;;;7.88;51.53;103556.97;5063594;28;20017;-85
2022/03/20 00:03:36;;;;;;;0.10;0.10;;;;;;;7.83;51.47;103555.91;5065292;28;20021;-85
2022/03/20 00:06:03;;;;;;;0.10;0.10;;;;;;;7.84;51.29;103547.13;5061759;28;20060;-85
2022/03/20 00:08:30;;;;;;;0.10;0.10;;;;;;;7.81;51.40;103544.38;5062684;28;20025;-85
2022/03/20 00:11:01;;;;;;;0.00;0.00;;;;;;;7.77;51.79;103544.25;5060034;28;20396;-85
2022/03/20 00:13:28;;;;;;;0.10;0.10;;;;;;;7.76;52.30;103547.78;5055242;28;20020;-85
2022/03/20 00:15:57;;;;;;;0.00;0.00;;;;;;;7.74;51.92;103544.16;5060655;28;20071;-85
2022/03/20 00:18:25;;;;;;;0.30;0.30;;;;;;;7.73;52.11;103542.38;5059373;28;20029;-85
2022/03/20 00:20:54;;;;;;;0.10;0.10;;;;;;;7.71;51.25;103536.16;5059776;28;20103;-84
2022/03/20 00:23:22;;;;;;;0.25;0.25;;;;;;;7.67;52.48;103528.94;5062396;28;20020;-85
2022/03/20 00:25:48;;;;;;;0.10;0.10;;;;;;;7.65;52.40;103529.75;5058367;28;20090;-85
2022/03/20 00:28:16;;;;;;;0.10;0.10;;;;;;;7.62;51.67;103525.25;5063998;28;20078;-85
2022/03/20 00:30:43;;;;;;;0.13;0.13;;;;;;;7.59;53.60;103519.88;5067464;28;20029;-84
2022/03/20 00:33:10;;;;;;;0.10;0.10;;;;;;;7.60;53.44;103522.56;5063892;28;20040;-84
2022/03/20 00:35:37;;;;;;;0.00;0.00;;;;;;;7.60;52.83;103521.66;5063096;28;20021;-85
2022/03/20 00:38:05;;;;;;;0.10;0.10;;;;;;;7.59;52.62;103518.13;5061548;28;20036;-85
2022/03/20 00:40:31;;;;;;;0.15;0.15;;;;;;;7.60;53.54;103511.09;5060819;28;20112;-85
2022/03/20 00:42:57;;;;;;;0.10;0.10;;;;;;;7.60;52.94;103513.75;5062008;28;20032;-85
2022/03/20 00:45:24;;;;;;;0.05;0.05;;;;;;;7.63;51.54;103508.59;5058616;28;20029;-85
2022/03/20 00:47:50;;;;;;;0.10;0.10;;;;;;;7.58;52.95;103510.16;5061750;28;20092;-85
2022/03/20 00:50:16;;;;;;;0.10;0.10;;;;;;;7.52;53.51;103507.31;5061745;28;20040;-85
2022/03/20 00:52:43;;;;;;;0.10;0.10;;;;;;;7.58;52.94;103502.25;5066436;28;20496;-85
2022/03/20 00:55:09;;;;;;;0.10;0.10;;;;;;;7.57;53.72;103496.06;5064272;28;20407;-85
2022/03/20 00:57:36;;;;;;;0.10;0.10;;;;;;;7.52;54.34;103497.66;5061113;28;20021;-85
2022/03/20 01:00:03;;;;;;;0.05;0.05;;;;;;;7.54;53.68;103490.69;5059581;28;20040;-85
2022/03/20 01:02:29;;;;;;;0.10;0.10;;;;;;;7.52;54.00;103492.38;5062827;28;20170;-85
2022/03/20 01:04:55;;;;;;;0.10;0.10;;;;;;;7.53;54.29;103493.28;5062299;28;20086;-85
2022/03/20 01:07:21;;;;;;;5.05;2.28;;;;;;;7.50;53.37;103482.59;5064721;28;20024;-85
2022/03/20 01:09:47;;;;;;;0.10;0.10;;;;;;;7.49;53.94;103483.44;5059093;28;20028;-85
2022/03/20 01:12:14;;;;;;;0.10;0.10;;;;;;;7.49;54.19;103475.53;5063264;28;20111;-85
2022/03/20 01:14:40;;;;;;;0.10;0.10;;;;;;;7.48;54.00;103473.72;5054537;28;20036;-84
2022/03/20 01:17:06;;;;;;;0.20;0.20;;;;;;;7.46;54.22;103471.03;5053621;28;20029;-85
2022/03/20 01:19:33;;;;;;;0.22;0.22;;;;;;;7.43;54.64;103448.09;5037435;28;20033;-85
2022/03/20 01:21:59;;;;;;;0.10;0.10;;;;;;;7.41;54.36;103446.25;5056771;28;20624;-85
2022/03/20 01:24:27;;;;;;;0.10;0.10;;;;;;;7.39;54.27;103454.13;5060690;28;20029;-85
2022/03/20 01:26:54;;;;;;;0.10;0.10;;;;;;;7.38;53.67;103441.75;5054038;28;20013;-86
2022/03/20 01:29:20;;;;;;;0.10;0.10;;;;;;;7.33;53.88;103431.88;5053604;28;20561;-85
2022/03/20 01:31:46;;;;;;;0.10;0.10;;;;;;;7.28;55.07;103434.38;5051361;28;20034;-85
2022/03/20 01:34:13;;;;;;;0.10;0.10;;;;;;;7.22;55.46;103429.78;5050549;28;20045;-86
2022/03/20 01:36:40;;;;;;;0.10;0.10;;;;;;;7.25;54.27;103434.25;5057147;28;20044;-85
2022/03/20 01:39:06;;;;;;;0.10;0.10;;;;;;;7.22;53.95;103426.25;5053717;28;20079;-85
2022/03/20 01:41:32;;;;;;;0.00;0.00;;;;;;;7.23;54.39;103431.56;5055332;28;20120;-85
2022/03/20 01:44:01;;;;;;;0.10;0.10;;;;;;;7.21;53.83;103427.97;5056113;28;20037;-85
2022/03/20 01:46:30;;;;;;;0.10;0.10;;;;;;;7.19;54.95;103418.22;5055361;28;20400;-85
2022/03/20 01:48:57;;;;;;;0.10;0.10;;;;;;;7.13;55.46;103419.78;5048447;28;20131;-84
2022/03/20 01:54:11;;;;;;;0.10;0.10;;;;;;;7.16;54.79;103397.03;5053653;28;20102;-85
2022/03/20 01:56:43;;;;;;;4.53;0.32;;;;;;;7.16;54.21;103402.31;5055789;28;20488;-85
2022/03/20 01:59:09;;;;;;;0.10;0.10;;;;;;;7.09;55.29;103395.91;5057091;28;20037;-85
2022/03/20 02:01:36;;;;;;;0.10;0.10;;;;;;;7.07;55.53;103403.75;5055221;28;20047;-85
2022/03/20 02:04:02;;;;;;;0.00;0.00;;;;;;;7.05;55.64;103400.19;5066253;28;20021;-85
2022/03/20 02:06:28;;;;;;;0.10;0.10;;;;;;;7.05;55.28;103392.28;5056573;28;20112;-85
2022/03/20 02:08:56;;;;;;;0.10;0.10;;;;;;;7.02;55.80;103393.91;5060712;28;20040;-85
2022/03/20 02:11:27;;;;;;;0.10;0.10;;;;;;;6.97;56.30;103385.81;5053268;28;20404;-85
2022/03/20 02:13:53;;;;;;;0.00;0.00;;;;;;;6.97;55.77;103376.16;5051357;28;20447;-86
2022/03/20 02:16:20;;;;;;;0.10;0.10;;;;;;;6.97;55.60;103384.06;5055057;28;20048;-85
2022/03/20 02:18:48;;;;;;;0.10;0.10;;;;;;;6.91;56.07;103378.59;5053634;28;20074;-85
2022/03/20 02:21:15;;;;;;;0.10;0.10;;;;;;;6.95;55.54;103371.69;5052426;28;20103;-86
2022/03/20 02:23:43;;;;;;;0.10;0.10;;;;;;;6.89;56.78;103382.00;5053248;28;20033;-85
2022/03/20 02:26:09;;;;;;;0.10;0.10;;;;;;;6.92;56.40;103376.84;5052578;28;20096;-85
2022/03/20 02:28:36;;;;;;;0.15;0.15;;;;;;;6.88;56.38;103367.03;5052688;28;20102;-86
2022/03/20 02:31:03;;;;;;;0.22;0.22;;;;;;;6.88;55.18;103353.84;5052763;28;20164;-86
2022/03/20 02:33:30;;;;;;;0.40;0.32;;;;;;;6.87;56.00;103358.25;5053461;28;20041;-85
2022/03/20 02:35:58;;;;;;;0.10;0.10;;;;;;;6.84;56.96;103346.69;5052705;28;20523;-85
2022/03/20 02:38:24;;;;;;;0.03;0.03;;;;;;;6.83;56.30;103334.34;5048266;28;20033;-86
2022/03/20 02:40:54;;;;;;;0.10;0.10;;;;;;;6.82;56.13;103336.09;5052434;28;20009;-85
2022/03/20 02:43:20;;;;;;;0.20;0.20;;;;;;;6.79;56.35;103328.06;5047640;28;20025;-86
2022/03/20 02:45:47;;;;;;;0.10;0.10;;;;;;;6.78;56.62;103329.81;5053240;28;20041;-86
2022/03/20 02:48:14;;;;;;;1.75;1.65;;;;;;;6.80;56.35;103324.59;5052566;28;20382;-85
2022/03/20 02:50:41;;;;;;;0.10;0.10;;;;;;;6.79;55.85;103317.53;5053302;28;20025;-83
2022/03/20 02:53:13;;;;;;;0.10;0.10;;;;;;;6.80;56.06;103314.97;5051788;28;20036;-85
2022/03/20 02:55:41;;;;;;;0.55;0.55;;;;;;;6.84;56.22;103320.34;5053179;28;20036;-85
2022/03/20 02:58:12;;;;;;;0.00;0.00;;;;;;;6.82;56.25;103316.75;5048482;28;20033;-86
2022/03/20 03:00:40;;;;;;;0.10;0.10;;;;;;;6.80;56.45;103312.34;5051535;28;20017;-86
2022/03/20 03:03:11;;;;;;;0.40;0.40;;;;;;;6.75;56.14;103306.00;5049265;28;20021;-85
2022/03/20 03:05:39;;;;;;;0.10;0.10;;;;;;;6.72;57.63;103300.63;5052360;28;20033;-85
2022/03/20 03:10:57;;;;;;;0.10;0.10;;;;;;;6.70;56.42;103294.38;5052342;28;20045;-86
2022/03/20 03:16:02;;;;;;;0.10;0.10;;;;;;;6.61;57.88;103297.59;5072955;28;20138;-81
2022/03/20 03:18:29;;;;;;;0.28;0.28;;;;;;;6.61;58.71;103296.69;5053245;28;20101;-80
2022/03/20 03:20:56;;;;;;;0.63;0.63;;;;;;;6.61;57.26;103294.94;5051248;28;20048;-81
2022/03/20 03:23:24;;;;;;;0.47;0.47;;;;;;;6.62;57.25;103294.13;5064343;28;20189;-80
2022/03/20 03:25:52;;;;;;;0.20;0.20;;;;;;;6.60;57.42;103294.91;5055862;28;20086;-80
2022/03/20 03:28:18;;;;;;;0.10;0.10;;;;;;;6.56;58.75;103293.00;5048911;28;20025;-80
2022/03/20 03:30:46;;;;;;;0.10;0.10;;;;;;;6.54;59.19;103295.59;5058080;28;20033;-80
2022/03/20 03:33:16;;;;;;;0.10;0.10;;;;;;;6.56;58.10;103298.28;5043071;28;20034;-80
2022/03/20 03:35:43;;;;;;;0.20;0.20;;;;;;;6.52;58.84;103286.72;5043406;28;20096;-80
2022/03/20 03:38:19;;;;;;;0.55;0.55;;;;;;;6.56;58.68;103282.47;5062781;28;20041;-80
2022/03/20 03:40:47;;;;;;;0.10;0.10;;;;;;;6.49;58.59;103270.81;5061170;28;20085;-79
2022/03/20 03:43:15;;;;;;;0.20;0.20;;;;;;;6.46;58.00;103270.72;5041682;28;20038;-80
2022/03/20 03:45:41;;;;;;;1.65;1.55;;;;;;;6.39;59.53;103269.59;5056225;28;20051;-80
2022/03/20 03:48:09;;;;;;;0.10;0.10;;;;;;;6.41;58.84;103267.00;5054010;28;20029;-81
2022/03/20 03:50:36;;;;;;;0.10;0.10;;;;;;;6.37;59.08;103252.84;5054450;28;20025;-80
2022/03/20 03:53:03;;;;;;;0.10;0.10;;;;;;;6.37;58.53;103249.28;5058065;28;20037;-80
2022/03/20 03:55:31;;;;;;;0.13;0.13;;;;;;;6.31;58.66;103250.88;5052820;28;20060;-81
2022/03/20 03:57:57;;;;;;;0.10;0.10;;;;;;;6.32;58.55;103251.78;5054490;28;20049;-81
2022/03/20 04:00:24;;;;;;;0.43;0.43;;;;;;;6.28;58.79;103249.84;5051218;28;20072;-81
2022/03/20 04:02:50;;;;;;;0.10;0.10;;;;;;;6.29;59.46;103249.03;5052064;28;20025;-81
2022/03/20 04:05:18;;;;;;;0.13;0.13;;;;;;;6.25;59.80;103239.22;5058644;28;20022;-82
2022/03/20 04:07:46;;;;;;;0.10;0.10;;;;;;;6.22;59.35;103233.84;5053080;28;20028;-81
2022/03/20 04:10:13;;;;;;;0.28;0.28;;;;;;;6.18;59.27;103237.19;5043201;28;20033;-81
2022/03/20 04:12:42;;;;;;;0.10;0.10;;;;;;;6.17;59.05;103227.50;5042617;28;20071;-81
2022/03/20 04:15:13;;;;;;;0.10;0.10;;;;;;;6.09;59.14;103228.16;5049056;28;20112;-81
2022/03/20 04:17:40;;;;;;;0.20;0.20;;;;;;;6.09;59.15;103221.97;5051982;28;20043;-80
2022/03/20 04:20:08;;;;;;;0.43;0.43;;;;;;;6.06;59.36;103224.50;5050489;28;20044;-80
2022/03/20 04:22:36;;;;;;;0.30;0.30;;;;;;;6.01;59.18;103226.94;5053644;28;20546;-80
2022/03/20 04:25:04;;;;;;;0.10;0.10;;;;;;;5.98;59.91;103213.63;5036212;28;20057;-80
2022/03/20 04:27:32;;;;;;;0.10;0.10;;;;;;;5.94;60.04;103215.28;5042975;28;20390;-81
2022/03/20 04:29:58;;;;;;;0.30;0.30;;;;;;;5.99;60.33;103220.72;5034566;28;20689;-81
2022/03/20 04:32:24;;;;;;;1.52;1.10;;;;;;;5.99;60.09;103208.47;5033990;28;20064;-81
2022/03/20 04:34:53;;;;;;;0.17;0.17;;;;;;;6.02;60.37;103191.91;5036951;28;20036;-81
2022/03/20 04:37:21;;;;;;;0.10;0.10;;;;;;;6.01;59.65;103190.09;5040276;28;20044;-81
2022/03/20 04:39:49;;;;;;;0.40;0.40;;;;;;;5.96;59.36;103194.28;5030876;28;20076;-81
2022/03/20 04:42:15;;;;;;;0.45;0.45;;;;;;;5.99;59.16;103189.16;5033469;28;20465;-81
2022/03/20 04:44:43;;;;;;;0.10;0.10;;;;;;;5.92;59.33;103176.56;5043992;28;20033;-81
2022/03/20 04:58:29;;;;;;;2.33;2.22;;;;;;;5.95;59.04;103177.56;5034975;28;20112;-80
2022/03/20 04:58:30;;;;;;;0.10;0.10;;;;;;;5.85;59.32;103182.47;5026893;28;20050;-81
2022/03/20 05:00:57;;;;;;;0.10;0.10;;;;;;;5.81;59.21;103179.69;5032290;28;20486;-81
2022/03/20 05:03:24;;;;;;;0.10;0.10;;;;;;;5.83;58.96;103170.13;5034478;28;20537;-82
2022/03/20 05:05:50;;;;;;;0.10;0.10;;;;;;;5.79;59.37;103157.69;5030452;28;20053;-82
2022/03/20 05:08:16;;;;;;;0.10;0.10;;;;;;;5.80;59.34;103151.59;5034818;28;20064;-81
2022/03/20 05:13:30;;;;;;;0.10;0.10;;;;;;;5.80;58.66;103150.72;5043526;28;20037;-81
2022/03/20 05:15:56;;;;;;;0.10;0.10;;;;;;;5.78;59.21;103136.59;5043838;28;20100;-82
2022/03/20 05:18:23;;;;;;;0.10;0.10;;;;;;;5.80;59.69;103130.53;5035760;28;20065;-81
2022/03/20 05:20:51;;;;;;;0.25;0.25;;;;;;;5.87;58.62;103130.78;5035995;28;20477;-80
2022/03/20 05:23:18;;;;;;;0.10;0.10;;;;;;;5.87;58.83;103130.78;5040709;28;20035;-81
2022/03/20 05:25:45;;;;;;;2.25;1.75;;;;;;;5.91;58.98;103128.31;5042764;28;20517;-81
2022/03/20 05:28:11;;;;;;;0.93;0.88;;;;;;;5.94;58.44;103117.00;5028303;28;20100;-82
2022/03/20 05:30:37;;;;;;;1.63;0.88;;;;;;;5.98;58.75;103116.25;5042815;28;20402;-81
2022/03/20 05:33:03;;;;;;;0.10;0.10;;;;;;;5.93;58.64;103116.13;5046851;28;20498;-81
2022/03/20 05:35:32;;;;;;;0.10;0.10;;;;;;;5.95;58.74;103113.53;5044141;28;20032;-83
2022/03/20 05:37:59;;;;;;;0.30;0.30;;;;;;;5.93;58.39;103115.22;5037562;28;20033;-83
2022/03/20 05:40:26;;;;;;;0.10;0.10;;;;;;;5.90;58.45;103115.13;5040711;28;20119;-82
2022/03/20 05:42:52;;;;;;;0.20;0.20;;;;;;;5.83;58.01;103108.72;5032562;28;20037;-83
2022/03/20 05:45:18;;;;;;;0.10;0.10;;;;;;;5.80;58.07;103109.50;5048301;28;20048;-83
2022/03/20 05:47:44;;;;;;;0.10;0.10;;;;;;;5.78;58.43;103105.94;5046226;28;20368;-81
2022/03/20 05:50:11;;;;;;;0.32;0.32;;;;;;;5.75;58.42;103103.19;5026055;28;20048;-81
2022/03/20 05:52:38;;;;;;;0.43;0.43;;;;;;;5.72;58.83;103099.53;5032218;28;20034;-80
2022/03/20 05:55:05;;;;;;;0.10;0.10;;;;;;;5.76;59.44;103086.56;5033814;28;20025;-80
2022/03/20 05:58:13;;;;;;;0.25;0.25;;;;;;;5.90;58.98;103088.81;5044587;28;20058;-80
2022/03/20 06:00:28;;;;;;;0.13;0.13;;;;;;;5.90;59.14;103084.41;5030922;28;20037;-80
2022/03/20 06:02:54;;;;;;;0.20;0.20;;;;;;;5.96;59.27;103078.50;5040815;28;20026;-80
2022/03/20 06:05:22;;;;;;;0.10;0.10;;;;;;;6.08;58.66;103078.97;5038873;28;20029;-80
2022/03/20 06:07:52;;;;;;;0.10;0.10;;;;;;;6.15;58.74;103075.66;5028042;28;20049;-81
2022/03/20 06:10:19;;;;;;;3.00;1.55;;;;;;;6.23;58.07;103070.69;5041797;28;20029;-81
2022/03/20 06:12:46;;;;;;;0.10;0.10;;;;;;;6.35;57.83;103064.03;5028766;28;20037;-80
2022/03/20 06:15:13;;;;;;;0.15;0.15;;;;;;;6.45;57.64;103063.50;5031049;28;20100;-80
2022/03/20 06:17:46;;;;;;;0.73;0.73;;;;;;;6.48;57.75;103061.88;5037544;28;20061;-81
2022/03/20 06:20:13;;;;;;;;;;;;;;;6.70;56.91;103062.53;5031242;28;20030;-80
2022/03/20 06:22:40;;;;;;;0.10;0.10;;;;;;;6.53;57.67;103072.56;5033377;28;20286;-81
2022/03/20 06:25:08;;;;;;;6.40;1.10;;;;;;;6.64;57.16;103079.06;5029128;28;20041;-80
2022/03/20 06:27:51;;;;;;;0.10;0.10;;;;;;;6.83;56.66;103068.19;5037614;28;20036;-80
2022/03/20 06:30:19;;;;;;;0.73;0.73;;;;;;;6.86;56.43;103073.59;5034560;28;20018;-81
2022/03/20 06:32:46;;;;;;;0.82;0.80;;;;;;;6.97;56.61;103059.88;5038488;28;20497;-81
2022/03/20 06:35:14;;;;;;;0.10;0.10;;;;;;;7.02;56.41;103062.66;5030329;28;20026;-80
2022/03/20 06:37:43;;;;;;;0.10;0.10;;;;;;;6.98;55.74;103060.78;5025825;28;20037;-80
2022/03/20 06:40:11;;;;;;;0.30;0.30;;;;;;;7.16;55.72;103059.56;5028270;28;20025;-81
2022/03/20 06:42:38;;;;;;;3.53;0.73;;;;;;;7.23;55.18;103066.81;5026311;28;20033;-81
2022/03/20 06:45:08;;;;;;;2.08;1.25;;;;;;;7.36;54.84;103053.09;5037313;28;20025;-80
2022/03/20 06:47:35;;;;;;;0.20;0.20;;;;;;;7.43;54.60;103046.28;5032028;28;20030;-80
2022/03/20 06:50:03;;;;;;;0.10;0.10;;;;;;;7.43;54.07;103048.91;5030537;28;20376;-81
2022/03/20 06:52:29;;;;;;;0.20;0.20;;;;;;;7.51;53.76;103049.13;5043998;28;20029;-81
2022/03/20 06:54:57;;;;;;;0.73;0.73;;;;;;;7.52;53.43;103037.72;5042486;28;20049;-81
2022/03/20 06:57:23;;;;;;;0.10;0.10;;;;;;;7.66;53.33;103044.28;5040239;28;20068;-82
2022/03/20 06:59:49;;;;;;;0.35;0.35;;;;;;;7.71;53.46;103039.13;5027140;28;20057;-82
2022/03/20 07:02:18;;;;;;;0.63;0.63;;;;;;;7.81;52.81;103027.97;5034907;28;20549;-82
2022/03/20 07:04:47;;;;;;;0.10;0.10;;;;;;;7.97;53.55;103033.66;5037299;28;20053;-81
2022/03/20 07:07:15;;;;;;;0.22;0.22;;;;;;;7.93;52.13;103035.31;5034130;28;20113;-82
2022/03/20 07:09:41;;;;;;;0.10;0.10;;;;;;;7.98;52.10;103027.53;5033278;28;20041;-82
2022/03/20 07:12:09;;;;;;;0.20;0.20;;;;;;;7.95;51.15;103036.25;5043602;28;20351;-82
2022/03/20 07:14:36;;;;;;;0.52;0.52;;;;;;;7.98;51.42;103033.69;5037735;28;20025;-82
2022/03/20 07:17:09;;;;;;;3.53;0.85;;;;;;;7.99;51.43;103030.19;5028029;28;20063;-82
2022/03/20 07:19:37;;;;;;;0.30;0.30;;;;;;;7.97;51.26;103025.75;5043319;28;20167;-81
2022/03/20 07:22:05;;;;;;;0.10;0.10;;;;;;;8.00;50.96;103016.16;5033108;28;20108;-81
2022/03/20 07:24:33;;;;;;;0.10;0.10;;;;;;;7.95;51.45;103009.88;5030719;28;20488;-81
2022/03/20 07:29:46;;;;;;;0.93;0.93;;;;;;;8.03;51.30;103010.94;5027856;28;20442;-83
2022/03/20 07:32:12;;;;;;;1.73;1.45;;;;;;;8.05;51.75;103001.31;5040822;28;20146;-83
2022/03/20 07:34:39;;;;;;;0.65;0.65;;;;;;;8.06;51.74;103003.13;5035393;28;20033;-84
2022/03/20 07:37:06;;;;;;;0.15;0.15;;;;;;;8.10;51.01;103002.31;5028551;28;20041;-83
2022/03/20 07:39:34;;;;;;;0.45;0.45;;;;;;;8.11;51.70;102997.91;5030288;28;20041;-82
2022/03/20 07:42:00;;;;;;;0.10;0.10;;;;;;;8.12;51.36;102998.84;5030116;28;20040;-82
2022/03/20 07:44:29;;;;;;;0.55;0.55;;;;;;;8.14;51.21;102997.09;5042342;28;20402;-82
2022/03/20 07:46:56;;;;;;;0.35;0.35;;;;;;;8.16;50.47;102979.56;5042772;28;20029;-82
2022/03/20 07:49:23;;;;;;;0.10;0.10;;;;;;;8.17;50.54;102976.94;5040038;28;20033;-83
2022/03/20 07:51:50;;;;;;;0.13;0.13;;;;;;;8.22;50.48;102979.72;5026686;28;20025;-83
2022/03/20 07:54:16;;;;;;;0.22;0.22;;;;;;;8.32;50.13;102964.97;5035234;28;20044;-83
2022/03/20 07:56:43;;;;;;;0.20;0.20;;;;;;;8.34;49.39;102974.72;5035682;28;20045;-81
2022/03/20 07:59:09;;;;;;;0.73;0.73;;;;;;;8.41;49.93;102984.59;5034842;28;20104;-81
2022/03/20 08:01:36;;;;;;;0.75;0.75;;;;;;;8.43;48.95;102984.63;5032420;28;20033;-81
2022/03/20 08:04:04;;;;;;;0.10;0.10;;;;;;;8.49;49.45;102968.94;5019170;28;20038;-81
2022/03/20 08:06:31;;;;;;;0.10;0.10;;;;;;;8.47;48.59;102967.13;5019754;28;20578;-80
2022/03/20 08:08:59;;;;;;;0.10;0.10;;;;;;;8.45;48.63;102974.06;5026042;28;20044;-82
2022/03/20 08:11:26;;;;;;;0.88;0.88;;;;;;;8.47;48.65;102975.03;5025977;28;20037;-83
2022/03/20 08:13:52;;;;;;;0.10;0.10;;;;;;;8.51;49.58;102972.53;5021632;28;20069;-83
2022/03/20 08:16:20;;;;;;;1.58;1.48;;;;;;;8.52;49.31;102962.81;5030698;28;20124;-83
2022/03/20 08:18:48;;;;;;;0.20;0.20;;;;;;;8.73;49.77;102955.41;5030169;28;20045;-82
2022/03/20 08:21:15;;;;;;;0.35;0.35;;;;;;;8.82;48.89;102940.56;5026071;28;20033;-82
2022/03/20 08:23:42;;;;;;;2.15;1.40;;;;;;;8.92;48.54;102947.81;5031697;28;20104;-83
2022/03/20 08:26:09;;;;;;;0.10;0.10;;;;;;;9.02;48.28;102956.84;5037780;28;20041;-83
2022/03/20 08:28:37;;;;;;;3.60;2.55;;;;;;;9.07;48.57;102948.16;5044452;28;20033;-83
2022/03/20 08:31:06;;;;;;;0.50;0.50;;;;;;;9.21;48.60;102950.19;5030875;28;20115;-83
2022/03/20 08:33:33;;;;;;;0.52;0.52;;;;;;;9.36;47.34;102944.31;5037047;28;20035;-87
2022/03/20 08:36:00;;;;;;;0.80;0.80;;;;;;;9.56;45.99;102944.66;5046669;28;20025;-83
2022/03/20 08:38:27;;;;;;;0.52;0.52;;;;;;;9.75;46.15;102942.34;5031908;28;20025;-83
2022/03/20 08:40:54;;;;;;;4.40;1.42;;;;;;;9.88;46.31;102928.44;5028613;28;20034;-81
2022/03/20 08:43:21;;;;;;;1.02;0.90;;;;;;;9.98;45.61;102925.09;5038221;28;20025;-80
2022/03/20 08:45:49;;;;;;;0.40;0.40;;;;;;;10.16;46.01;102923.59;5034055;28;20120;-80
2022/03/20 08:48:15;;;;;;;0.10;0.10;;;;;;;10.12;44.90;102924.38;5044272;28;20037;-82
2022/03/20 08:50:44;;;;;;;0.47;0.47;;;;;;;10.17;45.38;102928.03;5054362;28;20029;-81
2022/03/20 08:53:10;;;;;;;0.10;0.10;;;;;;;10.17;44.17;102928.03;5036085;28;20041;-82
2022/03/20 08:55:36;;;;;;;0.47;0.47;;;;;;;10.15;43.88;102911.19;5041386;28;20112;-81
2022/03/20 08:58:04;;;;;;;0.65;0.65;;;;;;;10.12;45.18;102912.06;5046653;28;20106;-81
2022/03/20 09:00:33;;;;;;;1.98;0.90;;;;;;;10.14;44.79;102909.41;5051260;28;20025;-81
2022/03/20 09:02:59;;;;;;;0.38;0.38;;;;;;;10.19;44.67;102898.03;5045821;28;20034;-81
2022/03/20 09:05:25;;;;;;;4.45;0.80;;;;;;;10.25;43.51;102902.50;5048609;28;20067;-82
2022/03/20 09:07:53;;;;;;;0.08;0.08;;;;;;;10.33;44.72;102906.19;5044792;28;20034;-83
2022/03/20 09:10:19;;;;;;;0.10;0.10;;;;;;;10.28;43.50;102905.22;5030563;28;20115;-83
2022/03/20 09:12:46;;;;;;;0.75;0.63;;;;;;;10.28;42.49;102905.22;5036884;28;20029;-83
2022/03/20 09:15:15;;;;;;;0.10;0.10;;;;;;;10.32;42.86;102908.81;5032406;28;20434;-83
2022/03/20 09:20:28;;;;;;;0.05;0.05;;;;;;;10.22;43.89;102901.56;5032971;28;20033;-82
2022/03/20 09:22:55;;;;;;;1.10;1.10;;;;;;;10.27;44.13;102891.94;5031479;28;20538;-83
2022/03/20 09:25:21;;;;;;;0.20;0.20;;;;;;;10.33;43.97;102887.63;5027940;28;20026;-82
2022/03/20 09:27:48;;;;;;;7.18;1.08;;;;;;;10.40;43.71;102901.88;5028359;28;20373;-82
2022/03/20 09:30:15;;;;;;;1.17;1.17;;;;;;;10.48;43.18;102894.94;5035607;28;20049;-82
2022/03/20 09:32:42;;;;;;;0.10;0.10;;;;;;;10.51;43.48;102887.00;5032772;28;20033;-82
2022/03/20 09:35:09;;;;;;;0.50;0.22;;;;;;;10.58;43.49;102890.63;5030192;28;20391;-81
2022/03/20 09:37:35;;;;;;;0.60;0.60;;;;;;;10.56;43.22;102886.19;5036115;28;20034;-82
2022/03/20 09:40:02;;;;;;;0.30;0.30;;;;;;;10.58;43.33;102890.63;5027690;28;20048;-81
2022/03/20 09:42:28;;;;;;;0.30;0.30;;;;;;;10.64;43.03;102898.69;5040283;28;20036;-81
2022/03/20 09:44:55;;;;;;;0.43;0.43;;;;;;;10.69;42.89;102898.72;5037655;28;20051;-82
2022/03/20 09:47:23;;;;;;;0.50;0.50;;;;;;;10.77;42.34;102906.78;5021890;22;20043;-77
2022/03/20 09:49:50;;;;;;;0.50;0.50;;;;;;;10.77;42.17;102906.78;5005947;28;20097;-78
2022/03/20 09:52:17;;;;;;;0.17;0.17;;;;;;;10.70;41.08;102916.41;4998417;28;20491;-79
2022/03/20 09:54:43;;;;;;;0.10;0.10;;;;;;;10.75;40.85;102912.03;4988881;28;20034;-76
2022/03/20 09:57:10;;;;;;;1.27;1.17;;;;;;;10.71;41.01;102912.88;4993963;28;20575;-77
2022/03/20 09:59:39;;;;;;;1.05;1.05;;;;;;;10.57;40.42;102917.13;4993796;28;20030;-76
2022/03/20 10:02:10;;;;;;;1.80;1.70;;;;;;;10.53;41.53;102910.91;4988598;28;20498;-75
2022/03/20 10:05:04;;;;;;;0.57;0.57;;;;;;;10.48;40.82;102904.63;4983127;28;20041;-77
2022/03/20 10:07:35;;;;;;;2.25;1.83;;;;;;;10.29;40.35;102895.50;4985217;28;20034;-80
2022/03/20 10:10:22;;;;;;;0.30;0.30;;;;;;;10.28;39.98;102893.72;4988528;28;20030;-78
2022/03/20 10:12:53;;;;;;;0.20;0.20;;;;;;;10.33;40.23;102886.72;4986531;28;20500;-77
2022/03/20 10:15:37;;;;;;;1.30;0.90;;;;;;;10.49;41.34;102885.19;4988346;28;20636;-77
2022/03/20 10:18:24;;;;;;;1.20;1.17;;;;;;;10.49;40.96;102874.59;4986376;28;20085;-77
2022/03/20 10:20:52;;;;;;;0.43;0.43;;;;;;;10.52;41.27;102869.34;4983399;28;20145;-79
2022/03/20 10:23:41;;;;;;;0.20;0.20;;;;;;;10.92;41.81;102867.16;4981130;28;20412;-77
2022/03/20 10:26:10;;;;;;;2.10;1.85;;;;;;;11.06;40.49;102854.06;4991032;28;20452;-77
2022/03/20 10:28:42;;;;;;;1.85;1.75;;;;;;;11.34;40.95;102851.69;4991131;28;20046;-78
2022/03/20 10:31:12;;;;;;;0.40;0.40;;;;;;;11.37;39.92;102837.56;4989973;28;20027;-78
2022/03/20 10:33:40;;;;;;;0.95;0.95;;;;;;;11.42;39.67;102819.91;4988882;28;20399;-78
2022/03/20 10:38:48;;;;;;;5.53;2.10;;;;;;;11.36;39.59;102839.28;5081572;28;20407;-78
2022/03/20 10:41:34;;;;;;;2.10;1.90;;;;;;;11.49;39.79;102817.28;5063168;28;20029;-80
2022/03/20 10:44:10;;;;;;;0.10;0.10;;;;;;;11.62;39.43;102831.53;5061025;28;20029;-77
2022/03/20 10:46:36;;;;;;;1.02;1.02;;;;;;;11.73;39.04;102828.09;5047761;28;20055;-78
2022/03/20 10:49:05;;;;;;;3.40;1.55;;;;;;;11.68;38.19;102821.88;5060493;28;20048;-77
2022/03/20 10:54:12;;;;;;;0.50;0.45;;;;;;;11.65;39.13;102842.19;5061644;27;1885514;-79
2022/03/20 10:56:57;;;;;;;0.10;0.10;;;;;;;11.78;38.88;102829.00;5108092;28;20028;-79
2022/03/20 10:59:24;;;;;;;0.50;0.50;;;;;;;11.68;38.96;102836.03;5092725;28;20039;-79
2022/03/20 11:01:51;;;;;;;0.63;0.63;;;;;;;11.69;38.06;102826.28;5077141;28;20064;-77
2022/03/20 11:04:19;;;;;;;7.93;2.47;;;;;;;11.73;38.00;102828.09;5077470;28;20092;-79
2022/03/20 11:06:48;;;;;;;1.45;1.00;;;;;;;11.79;38.62;102839.66;5078095;28;20032;-79
2022/03/20 11:09:15;;;;;;;3.85;0.65;;;;;;;11.76;38.30;102839.63;5080148;28;20418;-79
2022/03/20 11:11:47;;;;;;;0.30;0.30;;;;;;;11.73;38.89;102833.41;5072566;28;20035;-80
2022/03/20 11:14:15;;;;;;;1.35;1.27;;;;;;;11.67;38.88;102843.97;5076635;28;20020;-79
2022/03/20 11:16:45;;;;;;;0.10;0.10;;;;;;;11.53;39.90;102846.53;5084114;28;20116;-77
2022/03/20 11:19:13;;;;;;;1.88;1.20;;;;;;;11.32;39.14;102849.00;5077151;28;20496;-77
2022/03/20 11:21:43;;;;;;;0.70;0.70;;;;;;;11.17;40.14;102849.75;5079692;28;20032;-80
2022/03/20 11:24:11;;;;;;;1.80;1.70;;;;;;;11.04;41.81;102847.88;5077248;28;20128;-79
2022/03/20 11:26:42;;;;;;;0.90;0.90;;;;;;;10.94;43.11;102852.19;5080656;28;20024;-78
2022/03/20 11:29:11;;;;;;;0.80;0.80;;;;;;;10.91;42.98;102836.22;5082142;28;20182;-80
2022/03/20 11:31:38;;;;;;;2.25;2.05;;;;;;;10.88;44.27;102841.50;5086343;28;20028;-78
2022/03/20 11:34:06;;;;;;;2.45;1.95;;;;;;;10.94;45.21;102852.19;5084916;28;20408;-78
2022/03/20 11:36:53;;;;;;;0.45;0.45;;;;;;;10.94;46.66;102854.84;5083052;28;20037;-79
2022/03/20 11:39:19;;;;;;;1.63;1.55;;;;;;;11.23;46.39;102843.63;5086099;28;20056;-76
2022/03/20 11:41:45;;;;;;;0.75;0.75;;;;;;;11.35;47.49;102848.13;5081054;28;20037;-75
2022/03/20 11:47:18;;;;;;;1.10;0.95;;;;;;;11.49;48.26;102856.25;5108107;27;20506;-79
2022/03/20 11:50:05;;;;;;;0.80;0.80;;;;;;;11.55;48.52;102858.94;5099021;28;20141;-80
2022/03/20 11:55:37;;;;;;;0.95;0.95;;;;;;;12.18;47.34;102836.38;5094981;27;20186;-79
2022/03/20 11:58:10;;;;;;;0.43;0.43;;;;;;;12.47;47.06;102839.16;5092749;28;20099;-80
2022/03/20 12:00:40;;;;;;;3.22;1.20;;;;;;;12.66;45.21;102852.53;5088601;28;20450;-78
2022/03/20 12:03:30;;;;;;;2.47;1.52;;;;;;;12.74;43.48;102842.81;5086714;28;20089;-77
2022/03/20 12:09:03;;;;;;;0.50;0.50;;;;;;;12.92;43.50;102829.56;5076165;27;1966128;-78
2022/03/20 12:12:09;;;;;;;1.20;1.10;;;;;;;13.21;43.61;102822.50;5114898;28;20028;-78
2022/03/20 12:17:14;;;;;;;0.75;0.75;;;;;;;13.27;41.62;102818.06;5133212;27;20399;-78
2022/03/20 12:19:42;;;;;;;0.63;0.63;;;;;;;13.16;42.49;102818.94;5131582;27;20094;-78